Nausori International Airport Nausori FJ
ICAO: NFNA
IATA: SUV
Category: Medium
Scheduled Services: Yes

Elevation: 17 ft
TransAlt. 11000 ft.

Airport Communications:
APP:119.7
TRML INFO:128.5
TWR:119.7

NFNA Zoom In..

If you have problems with the map follow the link
https://www.worldairports.se/pages/airport.php?
ICAO=NFNA

Runways:

(A) RW 10 length 6129 ft width 98 ft
---- / hdg 96

(B) RW 28 length 6129 ft width 98 ft
---- / hdg 276

Location; NFNA
Day. 21 / Time. 10.00 Zulu
* QNH: 1011
* Temperature: 25° c. 77°f.
* Wind from: 170° Speed 03 kn.
Dewpoint: 20° c.
Visibility: 10 km or more.
Clouds: Scattered 2000 ft.
Clouds: Broken 4500 ft.

NFNA 211000Z 17003KT 9999 SCT020 BKN045 25/20 Q1011


Wind From 170°
Speed 03 kn.

 
 
jpsmedia worldairports.se 2020   terms of use